createdAt,value
2022-09-14T00:00:11.613Z,100713.41
2022-09-14T00:02:39.337Z,100704.41
2022-09-14T00:05:07.829Z,100714.09
2022-09-14T00:07:36.873Z,100709.06
2022-09-14T00:10:05.274Z,100712.75
2022-09-14T00:12:32.929Z,100720.09
2022-09-14T00:15:00.987Z,100709.78
2022-09-14T00:17:28.603Z,100713.78
2022-09-14T00:19:56.198Z,100709.78
2022-09-14T00:22:23.829Z,100707.44
2022-09-14T00:24:53.048Z,100707.78
2022-09-14T00:27:20.672Z,100707.78
2022-09-14T00:29:48.927Z,100704.47
2022-09-14T00:32:16.726Z,100696.28
2022-09-14T00:34:44.923Z,100684.09
2022-09-14T00:37:12.709Z,100688.47
2022-09-14T00:39:40.525Z,100687.59
2022-09-14T00:42:13.283Z,100689.78
2022-09-14T00:45:06.817Z,100685.09
2022-09-14T00:47:34.630Z,100683.44
2022-09-14T00:50:04.427Z,100681.78
2022-09-14T00:52:33.843Z,100667.25
2022-09-14T00:55:03.247Z,100656.75
2022-09-14T00:57:35.877Z,100659.09
2022-09-14T01:00:05.310Z,100656.41
2022-09-14T01:02:33.788Z,100654.44
2022-09-14T01:05:01.527Z,100653.59
2022-09-14T01:07:39.346Z,100656.75
2022-09-14T01:10:17.449Z,100666.78
2022-09-14T01:12:52.381Z,100659.44
2022-09-14T01:15:25.413Z,100648.75
2022-09-14T01:17:59.016Z,100657.44
2022-09-14T01:20:29.272Z,100655.09
2022-09-14T01:23:03.928Z,100642.09
2022-09-14T01:25:52.819Z,100646.09
2022-09-14T01:28:25.035Z,100654.09
2022-09-14T01:30:54.526Z,100651.44
2022-09-14T01:33:26.140Z,100632.94
2022-09-14T01:35:55.427Z,100632.09
2022-09-14T01:38:27.337Z,100632.38
2022-09-14T01:40:56.994Z,100632.38
2022-09-14T01:43:30.737Z,100639.72
2022-09-14T01:46:05.779Z,100631.38
2022-09-14T01:48:37.702Z,100637.53
2022-09-14T01:51:09.206Z,100625.38
2022-09-14T01:53:38.598Z,100620.06
2022-09-14T01:56:10.951Z,100621.06
2022-09-14T01:58:42.222Z,100630.06
2022-09-14T02:01:11.631Z,100621.88
2022-09-14T02:03:44.968Z,100622.38
2022-09-14T02:06:15.498Z,100622.38
2022-09-14T02:08:43.332Z,100620.72
2022-09-14T02:11:11.008Z,100624.38
2022-09-14T02:13:40.207Z,100619.41
2022-09-14T02:16:07.917Z,100628.88
2022-09-14T02:18:35.665Z,100621.06
2022-09-14T02:21:05.927Z,100617.72
2022-09-14T02:23:33.678Z,100623.91
2022-09-14T02:26:01.810Z,100618.69
2022-09-14T02:28:29.490Z,100615.38
2022-09-14T02:31:06.906Z,100608.56
2022-09-14T02:33:40.936Z,100596.53
2022-09-14T02:36:14.518Z,100595.69
2022-09-14T02:38:47.870Z,100598.88
2022-09-14T02:41:23.147Z,100594.03
2022-09-14T02:43:55.440Z,100598.72
2022-09-14T02:46:38.355Z,100592.03
2022-09-14T02:49:10.758Z,100588.88
2022-09-14T02:51:46.494Z,100602.22
2022-09-14T02:54:16.991Z,100586.22
2022-09-14T02:56:44.960Z,100585.03
2022-09-14T02:59:12.747Z,100577.03
2022-09-14T03:01:41.804Z,100572.38
2022-09-14T03:04:09.516Z,100578.69
2022-09-14T03:06:37.497Z,100582.19
2022-09-14T03:09:05.175Z,100588.38
2022-09-14T03:11:32.808Z,100576.03
2022-09-14T03:14:00.474Z,100584.03
2022-09-14T03:16:28.178Z,100578.69
2022-09-14T03:18:57.218Z,100584.03
2022-09-14T03:21:24.949Z,100579.03
2022-09-14T03:23:55.155Z,100578.38
2022-09-14T03:26:24.370Z,100581.38
2022-09-14T03:28:52.736Z,100574.38
2022-09-14T03:31:20.768Z,100566.53
2022-09-14T03:33:48.857Z,100564.72
2022-09-14T03:36:19.776Z,100562.88
2022-09-14T03:38:49.194Z,100557.88
2022-09-14T03:41:17.050Z,100563.72
2022-09-14T03:43:45.122Z,100548.88
2022-09-14T03:46:14.642Z,100541.72
2022-09-14T03:48:42.774Z,100548.06
2022-09-14T03:51:12.439Z,100550.72
2022-09-14T03:53:42.456Z,100544.56
2022-09-14T03:56:10.937Z,100545.38
2022-09-14T03:58:39.211Z,100539.38
2022-09-14T04:01:08.356Z,100545.22
2022-09-14T04:03:36.231Z,100534.03
2022-09-14T04:06:05.275Z,100537.38
2022-09-14T04:08:33.701Z,100529.22
2022-09-14T04:11:07.912Z,100526.38
2022-09-14T04:13:35.852Z,100528.88
2022-09-14T04:16:03.921Z,100524.72
2022-09-14T04:18:32.003Z,100530.88
2022-09-14T04:21:05.789Z,100533.38
2022-09-14T04:23:46.271Z,100528.03
2022-09-14T04:26:26.317Z,100528.03
2022-09-14T04:28:54.403Z,100531.38
2022-09-14T04:31:22.137Z,100528.03
2022-09-14T04:33:50.801Z,100531.22
2022-09-14T04:36:19.835Z,100523.72
2022-09-14T04:38:47.842Z,100526.72
2022-09-14T04:41:17.173Z,100527.72
2022-09-14T04:43:48.066Z,100525.06
2022-09-14T04:46:16.962Z,100526.03
2022-09-14T04:48:45.044Z,100515.72
2022-09-14T04:51:16.629Z,100525.53
2022-09-14T04:53:45.243Z,100513.22
2022-09-14T04:56:14.529Z,100517.72
2022-09-14T04:58:47.221Z,100517.72
2022-09-14T05:01:22.030Z,100510.38
2022-09-14T05:03:50.029Z,100499.06
2022-09-14T05:06:18.852Z,100503.38
2022-09-14T05:08:47.457Z,100500.72
2022-09-14T05:11:17.129Z,100485.06
2022-09-14T05:13:49.547Z,100497.06
2022-09-14T05:16:20.985Z,100475.38
2022-09-14T05:18:49.306Z,100491.91
2022-09-14T05:21:18.628Z,100499.06
2022-09-14T05:23:46.836Z,100496.41
2022-09-14T05:26:15.442Z,100483.56
2022-09-14T05:28:43.293Z,100487.75
2022-09-14T05:31:13.107Z,100472.56
2022-09-14T05:33:42.340Z,100478.75
2022-09-14T05:36:10.588Z,100477.91
2022-09-14T05:38:39.601Z,100479.06
2022-09-14T05:41:08.594Z,100482.41
2022-09-14T05:43:36.309Z,100466.72
2022-09-14T05:46:05.191Z,100477.06
2022-09-14T05:48:33.562Z,100478.06
2022-09-14T05:51:04.903Z,100473.72
2022-09-14T05:53:32.643Z,100480.06
2022-09-14T05:56:01.446Z,100483.72
2022-09-14T05:58:29.171Z,100495.06
2022-09-14T06:00:56.821Z,100496.06
2022-09-14T06:03:24.626Z,100488.41
2022-09-14T06:05:54.730Z,100489.06
2022-09-14T06:08:24.624Z,100487.88
2022-09-14T06:10:52.232Z,100483.56
2022-09-14T06:13:19.847Z,100486.88
2022-09-14T06:15:47.566Z,100493.56
2022-09-14T06:18:15.305Z,100487.88
2022-09-14T06:20:51.353Z,100493.72
2022-09-14T06:23:19.145Z,100493.38
2022-09-14T06:25:48.198Z,100492.38
2022-09-14T06:28:15.840Z,100491.41
2022-09-14T06:30:44.906Z,100490.38
2022-09-14T06:33:12.587Z,100496.72
2022-09-14T06:35:42.082Z,100493.72
2022-09-14T06:38:09.737Z,100492.06
2022-09-14T06:40:37.502Z,100486.91
2022-09-14T06:43:06.514Z,100490.03
2022-09-14T06:45:34.140Z,100494.38
2022-09-14T06:48:01.978Z,100500.72
2022-09-14T06:50:29.837Z,100494.72
2022-09-14T06:52:57.446Z,100501.38
2022-09-14T06:55:25.165Z,100497.69
2022-09-14T06:57:52.796Z,100496.03
2022-09-14T07:00:21.958Z,100500.03
2022-09-14T07:02:53.565Z,100506.03
2022-09-14T07:05:23.117Z,100500.53
2022-09-14T07:07:52.382Z,100504.84
2022-09-14T07:10:20.111Z,100500.38
2022-09-14T07:12:48.166Z,100506.53
2022-09-14T07:15:18.208Z,100507.38
2022-09-14T07:17:47.296Z,100500.03
2022-09-14T07:20:15.456Z,100500.03
2022-09-14T07:22:43.106Z,100504.34
2022-09-14T07:25:11.826Z,100508.03
2022-09-14T07:27:39.727Z,100504.53
2022-09-14T07:30:08.961Z,100507.38
2022-09-14T07:32:36.596Z,100519.34
2022-09-14T07:35:06.392Z,100512.53
2022-09-14T07:37:34.023Z,100509.22
2022-09-14T07:40:02.000Z,100518.03
2022-09-14T07:42:29.681Z,100508.38
2022-09-14T07:44:57.239Z,100512.72
2022-09-14T07:47:24.954Z,100507.38
2022-09-14T07:49:52.774Z,100508.69
2022-09-14T07:52:21.799Z,100504.00
2022-09-14T07:54:49.469Z,100494.34
2022-09-14T07:57:17.341Z,100500.53
2022-09-14T07:59:45.026Z,100502.88
2022-09-14T08:02:12.754Z,100501.84
2022-09-14T08:04:40.474Z,100496.34
2022-09-14T08:07:09.086Z,100509.50
2022-09-14T08:09:38.874Z,100516.69
2022-09-14T08:12:06.792Z,100510.50
2022-09-14T08:14:34.674Z,100494.34
2022-09-14T08:17:02.408Z,100500.34
2022-09-14T08:19:30.168Z,100485.00
2022-09-14T08:21:57.893Z,100481.97
2022-09-14T08:24:25.514Z,100473.63
2022-09-14T08:26:54.915Z,100474.13
2022-09-14T08:29:23.096Z,100475.44
2022-09-14T08:31:52.071Z,100479.97
2022-09-14T08:34:21.552Z,100493.13
2022-09-14T08:36:49.305Z,100496.25
2022-09-14T08:39:18.050Z,100499.75
2022-09-14T08:41:52.565Z,100490.94
2022-09-14T08:44:26.985Z,100491.09
2022-09-14T08:46:59.985Z,100486.59
2022-09-14T08:49:40.672Z,100480.25
2022-09-14T08:52:14.556Z,100486.28
2022-09-14T08:54:42.256Z,100482.09
2022-09-14T08:57:14.653Z,100490.59
2022-09-14T08:59:52.006Z,100487.56
2022-09-14T09:02:31.845Z,100480.56
2022-09-14T09:05:05.025Z,100463.25
2022-09-14T09:07:37.829Z,100469.91
2022-09-14T09:10:07.275Z,100468.72
2022-09-14T09:12:37.337Z,100469.53
2022-09-14T09:15:16.862Z,100464.38
2022-09-14T09:17:47.759Z,100463.38
2022-09-14T09:20:18.661Z,100463.88
2022-09-14T09:22:48.854Z,100461.69
2022-09-14T09:25:23.122Z,100453.66
2022-09-14T09:27:51.039Z,100462.19
2022-09-14T09:30:20.151Z,100469.81
2022-09-14T09:32:47.799Z,100467.16
2022-09-14T09:35:16.623Z,100470.66
2022-09-14T09:37:44.590Z,100474.84
2022-09-14T09:40:18.071Z,100471.97
2022-09-14T09:43:05.397Z,100466.66
2022-09-14T09:45:51.931Z,100469.13
2022-09-14T09:48:21.745Z,100459.47
2022-09-14T09:50:52.105Z,100446.28
2022-09-14T09:53:22.181Z,100453.13
2022-09-14T09:55:50.630Z,100457.41
2022-09-14T09:58:23.568Z,100454.38
2022-09-14T10:01:00.741Z,100454.03
2022-09-14T10:03:31.832Z,100450.53
2022-09-14T10:06:04.583Z,100462.50
2022-09-14T10:08:34.935Z,100466.69
2022-09-14T10:11:03.894Z,100462.00
2022-09-14T10:13:37.709Z,100456.66
2022-09-14T10:16:09.634Z,100467.16
2022-09-14T10:18:37.244Z,100450.94
2022-09-14T10:21:10.066Z,100447.94
2022-09-14T10:23:38.717Z,100444.91
2022-09-14T10:26:24.015Z,100440.19
2022-09-14T10:28:52.279Z,100438.53
2022-09-14T10:31:27.147Z,100438.53
2022-09-14T10:33:56.955Z,100439.22
2022-09-14T10:36:29.685Z,100436.53
2022-09-14T10:38:59.401Z,100435.38
2022-09-14T10:41:31.921Z,100434.19
2022-09-14T10:44:13.429Z,100434.19
2022-09-14T10:46:47.465Z,100424.81
2022-09-14T10:49:23.795Z,100419.47
2022-09-14T10:51:58.418Z,100419.09
2022-09-14T10:54:41.930Z,100413.75
2022-09-14T10:57:15.478Z,100416.25
2022-09-14T10:59:50.209Z,100422.06
2022-09-14T11:02:33.207Z,100418.38
2022-09-14T11:05:14.153Z,100421.69
2022-09-14T11:07:52.993Z,100428.72
2022-09-14T11:10:24.901Z,100425.88
2022-09-14T11:13:04.549Z,100425.06
2022-09-14T11:15:38.404Z,100412.03
2022-09-14T11:18:17.699Z,100425.50
2022-09-14T11:20:51.749Z,100413.50
2022-09-14T11:23:28.705Z,100417.94
2022-09-14T11:25:59.110Z,100415.28
2022-09-14T11:28:30.312Z,100423.97
2022-09-14T11:31:03.983Z,100427.66
2022-09-14T11:33:38.140Z,100428.28
2022-09-14T11:36:09.621Z,100425.25
2022-09-14T11:38:41.897Z,100421.56
2022-09-14T11:41:18.014Z,100420.91
2022-09-14T11:43:49.226Z,100427.59
2022-09-14T11:46:20.016Z,100428.88
2022-09-14T11:48:53.807Z,100409.69
2022-09-14T11:51:24.881Z,100410.22
2022-09-14T11:53:52.521Z,100418.53
2022-09-14T11:56:26.898Z,100414.22
2022-09-14T11:58:59.360Z,100405.19
2022-09-14T12:01:30.925Z,100405.00
2022-09-14T12:04:12.358Z,100409.69
2022-09-14T12:06:51.580Z,100408.19
2022-09-14T12:09:53.723Z,100404.69
2022-09-14T12:12:39.036Z,100415.88
2022-09-14T12:15:34.547Z,100408.50
2022-09-14T12:18:22.771Z,100404.81
2022-09-14T12:21:01.878Z,100416.81
2022-09-14T12:23:33.501Z,100401.59
2022-09-14T12:26:06.375Z,100404.72
2022-09-14T12:28:48.028Z,100405.75
2022-09-14T12:31:34.173Z,100419.31
2022-09-14T12:34:17.500Z,100406.22
2022-09-14T12:37:29.846Z,100397.00
2022-09-14T12:40:37.558Z,100405.03
2022-09-14T12:43:48.390Z,100396.16
2022-09-14T12:46:50.593Z,100396.81
2022-09-14T12:49:37.962Z,100388.16
2022-09-14T12:52:20.049Z,100391.56
2022-09-14T12:54:59.956Z,100373.88
2022-09-14T12:57:34.470Z,100374.41
2022-09-14T13:00:11.001Z,100382.34
2022-09-14T13:03:02.543Z,100374.59
2022-09-14T13:05:31.956Z,100364.34
2022-09-14T13:08:01.336Z,100366.69
2022-09-14T13:10:34.000Z,100363.19
2022-09-14T13:13:02.579Z,100359.94
2022-09-14T13:15:33.196Z,100362.81
2022-09-14T13:18:03.092Z,100367.53
2022-09-14T13:20:32.513Z,100366.69
2022-09-14T13:23:02.042Z,100359.66
2022-09-14T13:25:35.971Z,100352.81
2022-09-14T13:28:05.509Z,100349.13
2022-09-14T13:30:35.029Z,100353.47
2022-09-14T13:33:03.098Z,100352.66
2022-09-14T13:35:33.725Z,100348.13
2022-09-14T13:38:09.041Z,100355.19
2022-09-14T13:40:36.793Z,100350.81
2022-09-14T13:43:04.582Z,100355.81
2022-09-14T13:45:33.116Z,100341.41
2022-09-14T13:48:00.891Z,100343.06
2022-09-14T13:50:28.584Z,100338.34
2022-09-14T13:53:04.448Z,100342.31
2022-09-14T13:55:45.168Z,100340.09
2022-09-14T13:58:35.488Z,100338.53
2022-09-14T14:01:04.658Z,100330.13
2022-09-14T14:03:34.847Z,100332.88
2022-09-14T14:06:17.146Z,100325.31
2022-09-14T14:08:44.853Z,100324.56
2022-09-14T14:11:13.990Z,100331.91
2022-09-14T14:13:41.638Z,100317.53
2022-09-14T14:16:20.285Z,100318.81
2022-09-14T14:18:53.662Z,100319.28
2022-09-14T14:21:30.167Z,100309.63
2022-09-14T14:24:19.528Z,100302.19
2022-09-14T14:26:53.110Z,100304.03
2022-09-14T14:29:20.793Z,100302.38
2022-09-14T14:31:48.791Z,100294.97
2022-09-14T14:34:21.648Z,100303.38
2022-09-14T14:36:50.119Z,100297.84
2022-09-14T14:39:19.620Z,100300.66
2022-09-14T14:41:47.870Z,100305.16
2022-09-14T14:44:20.469Z,100297.78
2022-09-14T14:46:48.528Z,100296.38
2022-09-14T14:49:17.558Z,100291.69
2022-09-14T14:51:45.547Z,100289.03
2022-09-14T14:54:16.767Z,100282.91
2022-09-14T14:56:46.391Z,100279.06
2022-09-14T14:59:27.197Z,100284.91
2022-09-14T15:01:56.426Z,100283.75
2022-09-14T15:04:24.311Z,100280.31
2022-09-14T15:06:52.426Z,100279.94
2022-09-14T15:09:22.185Z,100273.38
2022-09-14T15:11:50.364Z,100274.84
2022-09-14T15:14:24.924Z,100268.38
2022-09-14T15:16:57.833Z,100276.50
2022-09-14T15:19:25.847Z,100267.41
2022-09-14T15:21:56.255Z,100266.66
2022-09-14T15:24:26.437Z,100267.53
2022-09-14T15:26:54.321Z,100267.78
2022-09-14T15:29:23.375Z,100263.88
2022-09-14T15:31:51.484Z,100257.69
2022-09-14T15:34:19.203Z,100258.06
2022-09-14T15:36:50.963Z,100253.09
2022-09-14T15:39:20.369Z,100251.41
2022-09-14T15:41:48.261Z,100254.41
2022-09-14T15:44:16.480Z,100260.16
2022-09-14T15:46:46.832Z,100262.19
2022-09-14T15:49:17.754Z,100260.91
2022-09-14T15:51:47.448Z,100263.97
2022-09-14T15:54:15.398Z,100265.00
2022-09-14T15:56:43.037Z,100268.06
2022-09-14T15:59:10.716Z,100266.78
2022-09-14T16:01:38.297Z,100266.34
2022-09-14T16:04:11.730Z,100266.34
2022-09-14T16:06:40.232Z,100262.44
2022-09-14T16:09:09.267Z,100262.06
2022-09-14T16:11:37.842Z,100275.44
2022-09-14T16:14:06.361Z,100270.28
2022-09-14T16:16:34.536Z,100265.97
2022-09-14T16:19:06.960Z,100272.53
2022-09-14T16:21:34.549Z,100273.31
2022-09-14T16:24:03.881Z,100272.66
2022-09-14T16:26:38.242Z,100278.41
2022-09-14T16:29:08.392Z,100279.41
2022-09-14T16:31:37.333Z,100273.22
2022-09-14T16:34:08.482Z,100286.22
2022-09-14T16:36:39.168Z,100277.19
2022-09-14T16:39:09.469Z,100279.06
2022-09-14T16:41:38.962Z,100285.41
2022-09-14T16:44:07.280Z,100283.13
2022-09-14T16:46:35.395Z,100283.94
2022-09-14T16:49:03.067Z,100284.34
2022-09-14T16:51:32.317Z,100288.03
2022-09-14T16:54:00.937Z,100282.69
2022-09-14T16:56:30.909Z,100279.53
2022-09-14T16:58:59.189Z,100280.19
2022-09-14T17:01:29.649Z,100277.44
2022-09-14T17:03:59.193Z,100289.44
2022-09-14T17:06:29.558Z,100293.31
2022-09-14T17:09:01.389Z,100284.00
2022-09-14T17:11:29.793Z,100282.34
2022-09-14T17:13:57.694Z,100284.19
2022-09-14T17:16:27.094Z,100281.72
2022-09-14T17:18:59.365Z,100283.72
2022-09-14T17:21:29.961Z,100279.78
2022-09-14T17:23:59.224Z,100277.31
2022-09-14T17:26:27.117Z,100286.16
2022-09-14T17:28:56.950Z,100277.44
2022-09-14T17:31:28.168Z,100283.22
2022-09-14T17:33:57.387Z,100291.44
2022-09-14T17:36:26.009Z,100290.00
2022-09-14T17:38:56.659Z,100293.03
2022-09-14T17:41:27.919Z,100297.94
2022-09-14T17:43:57.921Z,100293.78
2022-09-14T17:46:25.933Z,100295.19
2022-09-14T17:48:54.203Z,100297.22
2022-09-14T17:51:23.086Z,100295.72
2022-09-14T17:53:52.929Z,100306.63
2022-09-14T17:58:43.556Z,100315.38
2022-09-14T18:01:13.664Z,100314.91
2022-09-14T18:03:43.124Z,100321.28
2022-09-14T18:06:12.645Z,100317.78
2022-09-14T18:08:40.691Z,100323.13
2022-09-14T18:11:10.334Z,100321.66
2022-09-14T18:13:42.502Z,100323.50
2022-09-14T18:16:10.405Z,100335.22
2022-09-14T18:18:38.445Z,100336.22
2022-09-14T18:21:06.579Z,100332.91
2022-09-14T18:23:34.629Z,100333.28
2022-09-14T18:26:02.702Z,100334.28
2022-09-14T18:28:31.130Z,100335.31
2022-09-14T18:31:04.612Z,100346.38
2022-09-14T18:33:32.369Z,100344.06
2022-09-14T18:38:33.936Z,100351.00
2022-09-14T18:41:04.368Z,100345.81
2022-09-14T18:43:32.235Z,100351.16
2022-09-14T18:46:00.460Z,100353.38
2022-09-14T18:48:28.128Z,100345.38
2022-09-14T18:50:55.858Z,100357.91
2022-09-14T18:53:23.520Z,100356.41
2022-09-14T18:55:52.554Z,100358.25
2022-09-14T18:58:20.132Z,100354.13
2022-09-14T19:00:48.233Z,100352.66
2022-09-14T19:03:15.894Z,100353.47
2022-09-14T19:05:43.638Z,100347.66
2022-09-14T19:08:13.543Z,100353.00
2022-09-14T19:10:47.203Z,100360.38
2022-09-14T19:13:16.495Z,100360.56
2022-09-14T19:15:44.500Z,100359.25
2022-09-14T19:18:12.215Z,100354.09
2022-09-14T19:21:04.677Z,100355.94
2022-09-14T19:23:27.826Z,100352.81
2022-09-14T19:25:55.497Z,100362.28
2022-09-14T19:28:24.496Z,100354.47
2022-09-14T19:30:52.121Z,100365.34
2022-09-14T19:33:19.722Z,100358.50
2022-09-14T19:35:47.592Z,100359.72
2022-09-14T19:38:15.547Z,100363.59
2022-09-14T19:40:52.079Z,100356.56
2022-09-14T19:43:19.714Z,100353.88
2022-09-14T19:45:48.881Z,100355.06
2022-09-14T19:48:17.833Z,100350.63
2022-09-14T19:50:46.069Z,100353.69
2022-09-14T19:53:13.925Z,100361.84
2022-09-14T19:55:41.544Z,100353.38
2022-09-14T19:58:09.211Z,100353.06
2022-09-14T20:00:37.038Z,100354.63
2022-09-14T20:03:06.179Z,100354.78
2022-09-14T20:05:33.914Z,100362.97
2022-09-14T20:08:01.563Z,100373.47
2022-09-14T20:10:29.247Z,100358.00
2022-09-14T20:12:56.924Z,100370.16
2022-09-14T20:15:24.572Z,100372.19
2022-09-14T20:17:55.329Z,100366.19
2022-09-14T20:20:24.749Z,100373.38
2022-09-14T20:22:52.363Z,100370.22
2022-09-14T20:25:20.034Z,100374.53
2022-09-14T20:27:48.148Z,100374.53
2022-09-14T20:30:15.952Z,100380.25
2022-09-14T20:32:43.657Z,100378.59
2022-09-14T20:35:11.283Z,100369.44
2022-09-14T20:37:40.550Z,100378.94
2022-09-14T20:40:10.081Z,100373.59
2022-09-14T20:42:37.839Z,100387.97
2022-09-14T20:45:06.438Z,100371.63
2022-09-14T20:47:34.212Z,100381.66
2022-09-14T20:50:01.989Z,100377.97
2022-09-14T20:52:31.872Z,100379.81
2022-09-14T20:55:01.054Z,100399.34
2022-09-14T20:57:28.716Z,100389.03
2022-09-14T20:59:57.689Z,100398.50
2022-09-14T21:03:42.704Z,100394.84
2022-09-14T21:06:12.060Z,100403.84
